Time;durP1;ratioP1;P1;durP2;ratioP2;P2;SDS_P1;SDS_P2;PMS_P1;PMS_P2;Temp;Humidity;BMP_temperature;BMP_pressure;BME280_temperature;BME280_humidity;BME280_pressure;Samples;Min_cycle;Max_cycle;Signal;HPM_P1;HPM_P2
2022/07/18 00:00:29;;;;;;;5.47;5.07;;;16.70;99.90;;;;;;4917483;29;20219;-77
2022/07/18 00:02:56;;;;;;;5.23;4.83;;;16.70;99.90;;;;;;4917386;29;20203;-77
2022/07/18 00:05:23;;;;;;;5.60;5.00;;;16.70;99.90;;;;;;4917285;29;20630;-78
2022/07/18 00:07:50;;;;;;;5.27;4.87;;;16.60;99.90;;;;;;4917331;29;20215;-76
2022/07/18 00:10:17;;;;;;;6.33;5.23;;;16.60;99.90;;;;;;4917193;29;20668;-77
2022/07/18 00:12:45;;;;;;;5.23;4.83;;;16.60;99.90;;;;;;4917257;29;20632;-77
2022/07/18 00:15:12;;;;;;;6.10;5.60;;;16.50;99.90;;;;;;4905281;29;20666;-77
2022/07/18 00:17:39;;;;;;;5.77;5.30;;;16.50;99.90;;;;;;4913400;29;20210;-77
2022/07/18 00:20:09;;;;;;;6.07;5.50;;;16.50;99.90;;;;;;4916970;29;20221;-77
2022/07/18 00:22:36;;;;;;;5.67;5.27;;;16.50;99.90;;;;;;4917204;29;20207;-77
2022/07/18 00:25:04;;;;;;;6.00;5.50;;;16.50;99.90;;;;;;4915431;29;20204;-77
2022/07/18 00:27:30;;;;;;;5.40;5.00;;;16.40;99.90;;;;;;4917094;29;20672;-77
2022/07/18 00:29:58;;;;;;;5.60;5.10;;;16.30;99.90;;;;;;4915556;29;20239;-77
2022/07/18 00:32:25;;;;;;;5.30;4.90;;;16.30;99.90;;;;;;4915803;29;20256;-77
2022/07/18 00:34:52;;;;;;;5.90;5.30;;;16.20;99.90;;;;;;4916591;29;20205;-76
2022/07/18 00:37:19;;;;;;;6.23;5.70;;;16.10;99.90;;;;;;4915803;29;20648;-77
2022/07/18 00:39:45;;;;;;;6.23;5.73;;;16.10;99.90;;;;;;4914947;29;20288;-77
2022/07/18 00:42:12;;;;;;;6.13;5.63;;;16.10;99.90;;;;;;4916629;29;20262;-77
2022/07/18 00:44:39;;;;;;;6.00;5.50;;;16.10;99.90;;;;;;4916571;29;20210;-76
2022/07/18 00:47:07;;;;;;;7.60;6.07;;;16.00;99.90;;;;;;4915412;29;20208;-77
2022/07/18 00:49:34;;;;;;;5.93;5.40;;;16.00;99.90;;;;;;4899474;29;20272;-77
2022/07/18 00:52:01;;;;;;;6.30;5.70;;;16.00;99.90;;;;;;4915190;29;20233;-77
2022/07/18 00:54:28;;;;;;;5.73;5.30;;;16.00;99.90;;;;;;4915126;29;20639;-77
2022/07/18 00:56:55;;;;;;;6.10;5.53;;;16.00;99.90;;;;;;4916899;29;20601;-77
2022/07/18 00:59:22;;;;;;;6.43;5.83;;;16.00;99.90;;;;;;4916308;29;20223;-77
2022/07/18 01:01:47;;;;;;;5.77;5.33;;;16.00;99.90;;;;;;4916361;29;20616;-77
2022/07/18 01:04:19;;;;;;;5.40;5.00;;;16.00;99.90;;;;;;4916137;29;20250;-77
2022/07/18 01:06:47;;;;;;;5.80;5.40;;;16.00;99.90;;;;;;4899374;29;20234;-77
2022/07/18 01:09:14;;;;;;;6.07;5.67;;;16.00;99.90;;;;;;4916440;29;20631;-76
2022/07/18 01:11:41;;;;;;;6.40;5.80;;;15.90;99.90;;;;;;4916499;29;20299;-77
2022/07/18 01:14:08;;;;;;;6.37;5.77;;;15.90;99.90;;;;;;4914536;29;20681;-76
2022/07/18 01:16:35;;;;;;;5.80;5.30;;;15.80;99.90;;;;;;4916272;29;20200;-77
2022/07/18 01:19:04;;;;;;;5.90;5.40;;;15.80;99.90;;;;;;4914733;29;20205;-78
2022/07/18 01:21:32;;;;;;;5.60;5.20;;;15.80;99.90;;;;;;4915962;29;20258;-77
2022/07/18 01:23:59;;;;;;;5.73;5.23;;;15.80;99.90;;;;;;4915868;29;20202;-77
2022/07/18 01:26:26;;;;;;;5.57;5.17;;;15.80;99.90;;;;;;4916106;29;20211;-77
2022/07/18 01:28:53;;;;;;;5.87;5.47;;;15.70;99.90;;;;;;4916039;29;20258;-77
2022/07/18 01:31:20;;;;;;;5.70;5.30;;;15.70;99.90;;;;;;4914826;29;20229;-77
2022/07/18 01:33:47;;;;;;;5.80;5.40;;;15.70;99.90;;;;;;4915628;29;20625;-76
2022/07/18 01:36:13;;;;;;;5.30;4.90;;;15.60;99.90;;;;;;4914672;29;20220;-77
2022/07/18 01:38:42;;;;;;;5.57;5.10;;;15.60;99.90;;;;;;4915909;29;20640;-77
2022/07/18 01:41:08;;;;;;;5.57;5.17;;;15.60;99.90;;;;;;4915822;29;20213;-77
2022/07/18 01:43:37;;;;;;;5.80;5.40;;;15.50;99.90;;;;;;4915616;29;20201;-77
2022/07/18 01:46:05;;;;;;;6.40;5.90;;;15.50;99.90;;;;;;4914442;29;20287;-76
2022/07/18 01:48:31;;;;;;;6.30;5.90;;;15.40;99.90;;;;;;4915649;29;20200;-77
2022/07/18 01:50:58;;;;;;;5.60;5.10;;;15.30;99.90;;;;;;4914943;29;20217;-77
2022/07/18 01:53:25;;;;;;;5.90;5.40;;;15.30;99.90;;;;;;4914365;29;20690;-77
2022/07/18 01:55:54;;;;;;;5.90;5.50;;;15.30;99.90;;;;;;4914287;29;20206;-77
2022/07/18 01:58:20;;;;;;;5.90;5.40;;;15.20;99.90;;;;;;4914544;29;20207;-76
2022/07/18 02:00:47;;;;;;;5.80;5.30;;;15.20;99.90;;;;;;4914977;29;20405;-77
2022/07/18 02:03:14;;;;;;;5.90;5.40;;;15.20;99.90;;;;;;4914914;29;20212;-77
2022/07/18 02:05:41;;;;;;;5.63;5.23;;;15.20;99.90;;;;;;4914449;29;20641;-77
2022/07/18 02:08:08;;;;;;;5.73;5.30;;;15.10;99.90;;;;;;4915370;29;20609;-77
2022/07/18 02:10:35;;;;;;;5.47;5.07;;;15.10;99.90;;;;;;4916308;29;20292;-77
2022/07/18 02:13:03;;;;;;;6.07;5.67;;;15.10;99.90;;;;;;4915338;29;20204;-77
2022/07/18 02:15:30;;;;;;;6.40;5.80;;;15.00;99.90;;;;;;4915035;29;20667;-76
2022/07/18 02:17:57;;;;;;;6.30;5.80;;;15.00;99.90;;;;;;4914008;29;20677;-77
2022/07/18 02:20:24;;;;;;;5.80;5.37;;;15.00;99.90;;;;;;4915619;29;20229;-77
2022/07/18 02:22:51;;;;;;;6.07;5.57;;;14.90;99.90;;;;;;4898426;29;20210;-77
2022/07/18 02:25:17;;;;;;;6.10;5.60;;;14.90;99.90;;;;;;4915046;29;20200;-77
2022/07/18 02:27:44;;;;;;;6.00;5.60;;;14.90;99.90;;;;;;4915316;29;20626;-77
2022/07/18 02:30:13;;;;;;;6.00;5.50;;;14.80;99.90;;;;;;4915108;29;20643;-78
2022/07/18 02:32:40;;;;;;;5.77;5.37;;;14.80;99.90;;;;;;4915151;29;20244;-77
2022/07/18 02:35:08;;;;;;;6.40;5.93;;;14.70;99.90;;;;;;4913657;29;20196;-77
2022/07/18 02:37:37;;;;;;;5.70;5.30;;;14.70;99.90;;;;;;4915254;29;20679;-78
2022/07/18 02:40:06;;;;;;;6.20;5.70;;;14.70;99.90;;;;;;4915027;29;20310;-77
2022/07/18 02:42:34;;;;;;;6.53;6.03;;;14.70;99.90;;;;;;4910895;29;20205;-77
2022/07/18 02:45:01;;;;;;;6.00;5.50;;;14.70;99.90;;;;;;4913865;29;20622;-78
2022/07/18 02:47:29;;;;;;;6.23;5.73;;;14.60;99.90;;;;;;4915212;29;20291;-78
2022/07/18 02:49:56;;;;;;;6.37;5.87;;;14.60;99.90;;;;;;4898023;29;20302;-79
2022/07/18 02:52:23;;;;;;;6.13;5.63;;;14.60;99.90;;;;;;4914396;29;20294;-78
2022/07/18 02:54:50;;;;;;;6.13;5.63;;;14.50;99.90;;;;;;4912868;29;20200;-78
2022/07/18 02:57:16;;;;;;;5.90;5.40;;;14.50;99.90;;;;;;4913132;29;20215;-79
2022/07/18 02:59:45;;;;;;;5.93;5.43;;;14.40;99.90;;;;;;4915545;29;20280;-78
2022/07/18 03:02:12;;;;;;;6.37;5.87;;;14.30;99.90;;;;;;4905026;29;20206;-79
2022/07/18 03:04:40;;;;;;;6.77;6.07;;;14.20;99.90;;;;;;4918252;29;20276;-78
2022/07/18 03:07:07;;;;;;;6.50;6.00;;;14.20;99.90;;;;;;4919066;29;20204;-78
2022/07/18 03:09:34;;;;;;;6.80;6.30;;;14.20;99.90;;;;;;4918257;29;20280;-77
2022/07/18 03:12:01;;;;;;;6.10;5.70;;;14.20;99.90;;;;;;4918308;29;20228;-77
2022/07/18 03:14:27;;;;;;;6.30;5.87;;;14.20;99.90;;;;;;4918215;29;20204;-78
2022/07/18 03:16:54;;;;;;;6.80;6.30;;;14.10;99.90;;;;;;4918424;29;20255;-78
2022/07/18 03:19:21;;;;;;;6.10;5.70;;;14.10;99.90;;;;;;4919295;29;20227;-79
2022/07/18 03:21:50;;;;;;;6.60;6.10;;;14.20;99.90;;;;;;4919637;29;20244;-77
2022/07/18 03:24:17;;;;;;;6.30;5.80;;;14.20;99.90;;;;;;4918634;29;20207;-77
2022/07/18 03:26:44;;;;;;;5.90;5.40;;;14.10;99.90;;;;;;4919245;29;20697;-78
2022/07/18 03:29:12;;;;;;;6.17;5.77;;;14.10;99.90;;;;;;4909432;29;20205;-77
2022/07/18 03:31:39;;;;;;;6.30;5.87;;;14.10;99.90;;;;;;4918912;29;20252;-78
2022/07/18 03:34:05;;;;;;;6.00;5.60;;;14.10;99.90;;;;;;4918993;29;20200;-77
2022/07/18 03:36:32;;;;;;;6.77;6.27;;;14.10;99.90;;;;;;4919427;29;20259;-77
2022/07/18 03:39:01;;;;;;;6.03;5.57;;;14.00;99.90;;;;;;4918052;29;20435;-77
2022/07/18 03:41:27;;;;;;;6.80;6.20;;;14.00;99.90;;;;;;4917486;29;20247;-77
2022/07/18 03:43:54;;;;;;;6.77;6.27;;;14.10;99.90;;;;;;4918292;29;20247;-78
2022/07/18 03:46:21;;;;;;;6.57;6.03;;;14.00;99.90;;;;;;4920303;29;20200;-78
2022/07/18 03:48:48;;;;;;;6.17;5.77;;;14.00;99.90;;;;;;4918466;29;20260;-78
2022/07/18 03:51:15;;;;;;;6.63;6.13;;;14.10;99.90;;;;;;4919108;29;20231;-78
2022/07/18 03:53:42;;;;;;;6.00;5.60;;;14.10;99.90;;;;;;4918696;29;20203;-78
2022/07/18 03:56:10;;;;;;;6.33;5.93;;;14.10;99.90;;;;;;4917946;29;20288;-78
2022/07/18 03:58:37;;;;;;;6.47;6.00;;;14.10;99.90;;;;;;4918943;29;20196;-78
2022/07/18 04:01:04;;;;;;;6.50;6.00;;;14.20;99.90;;;;;;4918681;29;21447;-77
2022/07/18 04:03:31;;;;;;;6.60;6.10;;;14.20;99.90;;;;;;4918233;29;20200;-77
2022/07/18 04:05:58;;;;;;;6.80;6.20;;;14.20;99.90;;;;;;4918835;29;20224;-78
2022/07/18 04:08:25;;;;;;;6.67;6.17;;;14.20;99.90;;;;;;4918976;29;20203;-78
2022/07/18 04:10:52;;;;;;;6.90;6.40;;;14.20;99.90;;;;;;4918401;29;20231;-78
2022/07/18 04:13:20;;;;;;;6.57;6.07;;;14.10;99.90;;;;;;4917978;29;20709;-77
2022/07/18 04:15:47;;;;;;;6.53;6.03;;;14.20;99.90;;;;;;4916808;29;20215;-78
2022/07/18 04:18:13;;;;;;;6.43;5.87;;;14.30;99.90;;;;;;4918471;29;20257;-77
2022/07/18 04:20:40;;;;;;;6.57;6.07;;;14.30;99.90;;;;;;4918651;29;20287;-78
2022/07/18 04:23:08;;;;;;;6.50;6.00;;;14.40;99.90;;;;;;4917319;29;20204;-78
2022/07/18 04:25:37;;;;;;;6.37;5.97;;;14.40;99.90;;;;;;4918580;29;20207;-78
2022/07/18 04:28:04;;;;;;;6.87;6.37;;;14.40;99.90;;;;;;4918274;29;20681;-78
2022/07/18 04:30:33;;;;;;;6.13;5.73;;;14.50;99.90;;;;;;4918092;29;20220;-78
2022/07/18 04:33:03;;;;;;;6.57;6.07;;;14.50;99.90;;;;;;4918245;29;20219;-78
2022/07/18 04:35:30;;;;;;;6.37;5.93;;;14.60;99.90;;;;;;4917006;29;20348;-78
2022/07/18 04:37:57;;;;;;;6.45;5.97;;;14.60;99.90;;;;;;4916972;29;20529;-78
2022/07/18 04:40:24;;;;;;;6.70;6.13;;;14.70;99.90;;;;;;4911092;29;20412;-78
2022/07/18 04:42:51;;;;;;;6.47;5.90;;;14.70;99.90;;;;;;4918224;29;20201;-78
2022/07/18 04:45:21;;;;;;;6.30;5.90;;;14.80;99.90;;;;;;4918515;29;20213;-78
2022/07/18 04:47:50;;;;;;;6.07;5.67;;;14.90;99.90;;;;;;4918811;29;20233;-78
2022/07/18 04:50:17;;;;;;;6.53;6.07;;;14.90;99.90;;;;;;4918485;29;20223;-78
2022/07/18 04:52:45;;;;;;;6.70;6.20;;;15.00;99.90;;;;;;4918618;29;20282;-78
2022/07/18 04:55:13;;;;;;;2.80;2.60;;;15.10;99.90;;;;;;4894372;29;20586;-78
2022/07/18 04:57:40;;;;;;;4.77;3.33;;;15.20;99.90;;;;;;4918189;29;20252;-78
2022/07/18 05:00:10;;;;;;;3.27;2.97;;;15.40;99.90;;;;;;4916622;29;20646;-77
2022/07/18 05:02:40;;;;;;;3.27;2.90;;;15.50;99.90;;;;;;4918567;29;20226;-78
2022/07/18 05:05:10;;;;;;;6.77;6.23;;;15.60;99.90;;;;;;4918172;29;20202;-78
2022/07/18 05:07:37;;;;;;;6.90;6.27;;;15.80;99.90;;;;;;4918270;29;20216;-78
2022/07/18 05:10:07;;;;;;;6.20;5.70;;;16.00;99.90;;;;;;4917851;29;20728;-78
2022/07/18 05:12:34;;;;;;;3.30;3.00;;;16.10;99.90;;;;;;4917119;29;20226;-79
2022/07/18 05:15:01;;;;;;;3.50;3.20;;;16.30;99.90;;;;;;4900737;29;20558;-79
2022/07/18 05:17:28;;;;;;;3.00;2.80;;;16.40;99.90;;;;;;4918364;29;20735;-78
2022/07/18 05:19:55;;;;;;;3.33;2.93;;;16.50;99.90;;;;;;4916718;29;20236;-77
2022/07/18 05:22:23;;;;;;;3.30;2.97;;;16.70;99.90;;;;;;4918598;29;20260;-77
2022/07/18 05:24:50;;;;;;;3.70;3.30;;;16.80;99.90;;;;;;4916535;29;20264;-78
2022/07/18 05:27:17;;;;;;;5.70;5.20;;;16.90;99.90;;;;;;4918171;29;20211;-78
2022/07/18 05:29:44;;;;;;;5.67;5.17;;;17.10;99.90;;;;;;4918786;29;20579;-78
2022/07/18 05:32:12;;;;;;;3.70;3.30;;;17.30;99.90;;;;;;4919710;29;20236;-78
2022/07/18 05:34:38;;;;;;;3.20;2.80;;;17.50;99.90;;;;;;4923832;29;20700;-79
2022/07/18 05:37:05;;;;;;;3.17;2.87;;;17.60;99.90;;;;;;4924272;29;20207;-79
2022/07/18 05:39:35;;;;;;;4.97;4.53;;;17.80;99.90;;;;;;4925139;29;20243;-79
2022/07/18 05:42:02;;;;;;;4.50;4.20;;;18.00;99.90;;;;;;4925048;29;20713;-78
2022/07/18 05:44:29;;;;;;;5.23;4.83;;;18.20;99.90;;;;;;4918506;29;20290;-77
2022/07/18 05:46:56;;;;;;;5.53;5.03;;;18.40;99.90;;;;;;4918131;29;20251;-78
2022/07/18 05:49:22;;;;;;;4.27;3.90;;;18.60;99.90;;;;;;4918167;29;20221;-78
2022/07/18 05:51:49;;;;;;;3.53;3.07;;;18.90;99.90;;;;;;4917645;29;20625;-77
2022/07/18 05:54:18;;;;;;;5.43;5.03;;;19.40;99.90;;;;;;4918479;29;20232;-78
2022/07/18 05:56:48;;;;;;;6.13;5.53;;;20.20;99.90;;;;;;4918855;29;20210;-78
2022/07/18 05:59:15;;;;;;;3.07;2.83;;;21.00;99.90;;;;;;4914565;29;20208;-78
2022/07/18 06:01:41;;;;;;;3.10;2.87;;;21.80;99.90;;;;;;4915707;29;20196;-79
2022/07/18 06:04:08;;;;;;;4.27;3.90;;;22.30;99.90;;;;;;4918179;29;20251;-78
2022/07/18 06:06:35;;;;;;;3.43;3.13;;;22.60;98.70;;;;;;4919927;29;20287;-78
2022/07/18 06:09:02;;;;;;;4.83;2.73;;;23.00;98.50;;;;;;4920591;29;20192;-78
2022/07/18 06:11:29;;;;;;;5.60;5.10;;;23.20;97.20;;;;;;4920868;29;20267;-78
2022/07/18 06:13:58;;;;;;;2.90;2.60;;;23.30;97.10;;;;;;4902768;29;20223;-78
2022/07/18 06:16:25;;;;;;;5.47;5.00;;;23.50;96.60;;;;;;4920690;29;20204;-78
2022/07/18 06:18:51;;;;;;;5.80;5.30;;;23.70;96.70;;;;;;4920686;29;20192;-78
2022/07/18 06:21:18;;;;;;;6.70;6.20;;;23.80;96.10;;;;;;4920132;29;20240;-78
2022/07/18 06:23:45;;;;;;;5.33;4.93;;;23.60;96.20;;;;;;4919296;29;20200;-78
2022/07/18 06:26:12;;;;;;;4.70;3.00;;;23.40;96.00;;;;;;4920741;29;20240;-78
2022/07/18 06:28:39;;;;;;;2.60;2.40;;;23.20;96.30;;;;;;4920032;29;20199;-79
2022/07/18 06:31:07;;;;;;;3.60;3.30;;;23.20;96.40;;;;;;4920185;29;20266;-78
2022/07/18 06:33:34;;;;;;;5.47;5.07;;;23.30;96.10;;;;;;4919834;29;20212;-78
2022/07/18 06:36:01;;;;;;;6.10;5.60;;;23.70;95.30;;;;;;4921097;29;20231;-78
2022/07/18 06:38:28;;;;;;;5.53;5.13;;;24.10;94.00;;;;;;4924341;29;20219;-79
2022/07/18 06:40:55;;;;;;;5.53;5.13;;;24.60;92.70;;;;;;4924573;29;20219;-78
2022/07/18 06:43:22;;;;;;;5.97;5.57;;;25.00;92.30;;;;;;4925587;29;20635;-79
2022/07/18 06:45:51;;;;;;;4.43;4.03;;;25.30;91.60;;;;;;4923946;29;20216;-79
2022/07/18 06:48:19;;;;;;;4.90;4.50;;;25.60;91.60;;;;;;4924741;29;20214;-79
2022/07/18 06:50:46;;;;;;;4.70;4.33;;;25.80;92.20;;;;;;4923103;29;20224;-78
2022/07/18 06:53:13;;;;;;;6.40;5.90;;;26.10;90.20;;;;;;4923349;29;20250;-78
2022/07/18 06:55:40;;;;;;;5.30;4.80;;;25.90;89.50;;;;;;4924085;29;20204;-78
2022/07/18 06:58:07;;;;;;;6.70;6.20;;;26.20;89.70;;;;;;4925131;29;20224;-79
2022/07/18 07:00:34;;;;;;;6.17;5.57;;;26.40;88.10;;;;;;4923267;29;20228;-79
2022/07/18 07:03:00;;;;;;;4.57;3.57;;;26.60;84.30;;;;;;4924870;29;20278;-78
2022/07/18 07:05:28;;;;;;;5.30;4.90;;;26.80;87.80;;;;;;4907247;29;20203;-79
2022/07/18 07:07:55;;;;;;;4.90;4.40;;;27.20;85.20;;;;;;4906580;29;20212;-79
2022/07/18 07:10:22;;;;;;;5.10;4.80;;;27.40;86.40;;;;;;4923746;29;20252;-78
2022/07/18 07:12:51;;;;;;;4.93;4.53;;;27.50;85.30;;;;;;4922438;29;20216;-79
2022/07/18 07:15:19;;;;;;;5.13;4.60;;;27.60;83.60;;;;;;4923551;29;20200;-79
2022/07/18 07:17:47;;;;;;;6.30;5.80;;;27.60;83.90;;;;;;4921496;29;20291;-78
2022/07/18 07:20:14;;;;;;;4.90;4.50;;;27.30;84.40;;;;;;4922218;29;20224;-78
2022/07/18 07:22:47;;;;;;;5.50;5.10;;;27.50;84.00;;;;;;4922738;29;20203;-79
2022/07/18 07:25:14;;;;;;;6.30;5.30;;;27.70;85.90;;;;;;4919679;29;20830;-79
2022/07/18 07:27:42;;;;;;;5.83;5.43;;;28.10;82.70;;;;;;4921986;29;20211;-79
2022/07/18 07:30:10;;;;;;;6.70;5.20;;;27.80;84.40;;;;;;4921066;29;20228;-78
2022/07/18 07:32:37;;;;;;;5.63;5.00;;;27.80;82.40;;;;;;4924033;29;20216;-79
2022/07/18 07:35:06;;;;;;;5.77;5.07;;;28.10;82.10;;;;;;4925771;29;20212;-78
2022/07/18 07:37:33;;;;;;;5.90;5.50;;;28.20;82.90;;;;;;4922226;29;20200;-80
2022/07/18 07:40:02;;;;;;;5.70;5.20;;;28.70;80.50;;;;;;4918087;29;20226;-76
2022/07/18 07:42:28;;;;;;;6.00;5.40;;;29.10;79.40;;;;;;4917447;29;20195;-78
2022/07/18 07:44:55;;;;;;;6.13;5.63;;;29.20;77.10;;;;;;4917323;29;20736;-78
2022/07/18 07:47:22;;;;;;;6.00;5.50;;;29.20;78.10;;;;;;4916416;29;20591;-77
2022/07/18 07:49:49;;;;;;;6.03;5.53;;;29.20;78.70;;;;;;4915062;29;20279;-77
2022/07/18 07:52:17;;;;;;;6.00;5.50;;;29.40;79.70;;;;;;4917801;29;20252;-77
2022/07/18 07:54:44;;;;;;;5.07;4.70;;;29.60;77.20;;;;;;4917371;29;20295;-76
2022/07/18 07:57:13;;;;;;;5.47;5.17;;;29.50;80.30;;;;;;4916896;29;20582;-77
2022/07/18 07:59:40;;;;;;;6.13;5.70;;;29.60;80.10;;;;;;4917502;29;20709;-77
2022/07/18 08:02:07;;;;;;;5.87;5.40;;;29.90;77.90;;;;;;4917407;29;20197;-77
2022/07/18 08:04:34;;;;;;;6.40;5.90;;;30.20;76.20;;;;;;4915900;29;20279;-77
2022/07/18 08:07:01;;;;;;;6.00;5.60;;;30.10;77.00;;;;;;4917222;29;20207;-76
2022/07/18 08:09:37;;;;;;;6.30;5.80;;;29.90;76.90;;;;;;4916037;29;20295;-77
2022/07/18 08:12:05;;;;;;;6.40;5.90;;;29.90;76.50;;;;;;4917304;29;20562;-77
2022/07/18 08:14:33;;;;;;;6.37;5.87;;;30.20;77.80;;;;;;4917090;29;20768;-77
2022/07/18 08:17:00;;;;;;;6.70;5.87;;;30.40;76.40;;;;;;4917058;29;20206;-77
2022/07/18 08:19:27;;;;;;;6.00;5.30;;;30.50;73.90;;;;;;4915950;29;20260;-77
2022/07/18 08:21:53;;;;;;;5.93;5.53;;;30.40;75.20;;;;;;4915680;29;20726;-77
2022/07/18 08:24:20;;;;;;;5.37;4.87;;;30.30;75.20;;;;;;4915477;29;20277;-77
2022/07/18 08:26:47;;;;;;;5.77;5.27;;;30.60;77.40;;;;;;4919188;29;20212;-77
2022/07/18 08:29:14;;;;;;;7.97;4.60;;;30.70;75.80;;;;;;4909723;29;20267;-77
2022/07/18 08:31:43;;;;;;;6.20;5.80;;;30.70;78.10;;;;;;4917719;29;20286;-79
2022/07/18 08:34:10;;;;;;;6.37;5.97;;;31.10;79.20;;;;;;4918795;29;20218;-78
2022/07/18 08:36:37;;;;;;;6.10;5.70;;;30.70;77.50;;;;;;4919868;29;20538;-78
2022/07/18 08:39:04;;;;;;;5.87;5.47;;;30.80;78.50;;;;;;4919125;29;20855;-78
2022/07/18 08:41:32;;;;;;;6.20;5.70;;;31.10;75.20;;;;;;4918953;29;20206;-79
2022/07/18 08:43:59;;;;;;;6.47;5.87;;;31.10;76.10;;;;;;4920006;29;20200;-78
2022/07/18 08:46:27;;;;;;;5.50;5.10;;;31.10;73.70;;;;;;4923962;29;20208;-78
2022/07/18 08:48:56;;;;;;;6.87;5.60;;;30.90;73.90;;;;;;4919075;29;20308;-78
2022/07/18 08:51:23;;;;;;;6.07;5.57;;;31.10;76.00;;;;;;4917852;29;20215;-79
2022/07/18 08:53:52;;;;;;;6.10;5.50;;;31.00;75.30;;;;;;4918296;29;20224;-79
2022/07/18 08:56:19;;;;;;;6.07;5.57;;;30.80;75.20;;;;;;4917521;29;20219;-78
2022/07/18 08:58:46;;;;;;;6.23;5.60;;;31.10;73.70;;;;;;4918823;29;20256;-78
2022/07/18 09:01:14;;;;;;;6.07;5.67;;;30.80;74.30;;;;;;4918065;29;20223;-79
2022/07/18 09:03:41;;;;;;;6.57;5.83;;;30.90;74.70;;;;;;4917458;29;20200;-77
2022/07/18 09:06:11;;;;;;;6.47;5.97;;;31.20;74.70;;;;;;4916811;29;20318;-78
2022/07/18 09:08:39;;;;;;;6.07;5.60;;;31.40;72.90;;;;;;4917319;29;20695;-79
2022/07/18 09:11:11;;;;;;;5.90;5.50;;;31.60;72.90;;;;;;4916616;29;20255;-77
2022/07/18 09:13:42;;;;;;;6.00;5.60;;;31.90;72.80;;;;;;4916732;29;20252;-78
2022/07/18 09:16:11;;;;;;;5.70;5.37;;;32.20;72.30;;;;;;4918870;29;20290;-78
2022/07/18 09:18:40;;;;;;;5.93;5.53;;;32.40;71.50;;;;;;4911706;29;20427;-78
2022/07/18 09:21:11;;;;;;;6.40;5.90;;;32.20;67.90;;;;;;4915545;29;20227;-79
2022/07/18 09:23:40;;;;;;;6.10;5.60;;;31.90;67.70;;;;;;4916743;29;20252;-78
2022/07/18 09:26:07;;;;;;;5.70;5.30;;;31.90;69.10;;;;;;4900401;29;20196;-78
2022/07/18 09:28:49;;;;;;;5.93;5.43;;;32.30;70.80;;;;;;4918066;29;20196;-78
2022/07/18 09:31:20;;;;;;;5.90;5.40;;;32.50;69.20;;;;;;4911277;29;20220;-78
2022/07/18 09:33:53;;;;;;;5.88;5.45;;;32.70;69.20;;;;;;4912961;29;20207;-79
2022/07/18 09:36:22;;;;;;;5.80;5.40;;;32.60;66.70;;;;;;4916965;29;20677;-79
2022/07/18 09:38:51;;;;;;;5.63;5.23;;;32.80;67.60;;;;;;4914532;29;20294;-78
2022/07/18 09:41:23;;;;;;;6.20;5.50;;;33.00;68.90;;;;;;4916999;29;20235;-79
2022/07/18 09:43:51;;;;;;;6.27;5.77;;;33.10;64.70;;;;;;4915579;29;20203;-79
2022/07/18 09:46:18;;;;;;;5.40;5.10;;;33.00;66.20;;;;;;4917239;29;20582;-79
2022/07/18 09:48:45;;;;;;;5.60;5.30;;;33.40;65.10;;;;;;4915389;29;20219;-80
2022/07/18 09:51:11;;;;;;;5.72;5.32;;;33.70;65.70;;;;;;4916420;29;20553;-79
2022/07/18 09:53:42;;;;;;;5.80;5.20;;;33.70;60.80;;;;;;4915713;29;20254;-78
2022/07/18 09:56:10;;;;;;;5.60;5.10;;;33.20;64.70;;;;;;4915319;29;20263;-79
2022/07/18 09:58:39;;;;;;;4.60;4.22;;;33.40;63.60;;;;;;4916075;29;20204;-79
2022/07/18 10:01:07;;;;;;;4.85;4.55;;;33.30;60.50;;;;;;4915976;29;20223;-79
2022/07/18 10:03:35;;;;;;;5.65;5.25;;;32.70;64.90;;;;;;4916548;29;20200;-79
2022/07/18 10:06:04;;;;;;;5.57;5.20;;;32.80;60.70;;;;;;4917900;29;20211;-79
2022/07/18 10:08:33;;;;;;;5.97;5.45;;;32.40;62.00;;;;;;4917116;29;20259;-79
2022/07/18 10:11:04;;;;;;;5.50;5.20;;;32.60;62.30;;;;;;4916390;29;20286;-79
2022/07/18 10:13:32;;;;;;;5.25;4.95;;;33.10;62.00;;;;;;4916732;29;20220;-79
2022/07/18 10:16:00;;;;;;;5.80;5.40;;;33.30;62.50;;;;;;4916118;29;20255;-79
2022/07/18 10:18:28;;;;;;;5.93;5.32;;;33.40;63.00;;;;;;4916982;29;20202;-79
2022/07/18 10:20:59;;;;;;;5.63;5.27;;;33.30;60.50;;;;;;4916618;29;20219;-79
2022/07/18 10:23:29;;;;;;;5.55;5.20;;;33.40;62.40;;;;;;4915034;29;20576;-79
2022/07/18 10:26:13;;;;;;;5.50;5.10;;;33.20;61.50;;;;;;4915173;29;20208;-79
2022/07/18 10:29:09;;;;;;;5.47;5.13;;;33.20;60.10;;;;;;4914965;29;20222;-79
2022/07/18 10:31:37;;;;;;;5.38;5.07;;;33.20;62.80;;;;;;4907673;29;20747;-79
2022/07/18 10:34:11;;;;;;;6.90;5.50;;;32.90;61.50;;;;;;4915074;29;20224;-79
2022/07/18 10:36:39;;;;;;;5.40;5.10;;;32.60;61.90;;;;;;4916981;29;20233;-79
2022/07/18 10:39:08;;;;;;;5.93;5.53;;;32.40;63.70;;;;;;4915587;29;20200;-79
2022/07/18 10:42:20;;;;;;;5.93;5.43;;;32.30;62.40;;;;;;4915435;29;20192;-78
2022/07/18 10:44:47;;;;;;;5.30;5.00;;;32.40;65.20;;;;;;4915480;29;20681;-79
2022/07/18 10:47:17;;;;;;;5.43;5.13;;;32.50;64.80;;;;;;4914408;29;20279;-79
2022/07/18 10:50:05;;;;;;;5.83;5.43;;;32.40;64.00;;;;;;4916160;29;20234;-79
2022/07/18 10:53:00;;;;;;;5.50;5.20;;;32.60;64.30;;;;;;4909660;29;20203;-79
2022/07/18 10:55:31;;;;;;;5.30;4.90;;;32.60;62.70;;;;;;4911477;29;20699;-76
2022/07/18 10:58:18;;;;;;;5.20;4.90;;;32.50;64.20;;;;;;4915038;29;20204;-78
2022/07/18 11:00:49;;;;;;;5.50;5.00;;;32.00;62.50;;;;;;4915170;29;20271;-77
2022/07/18 11:03:18;;;;;;;5.33;4.87;;;32.00;64.40;;;;;;4913696;29;20740;-77
2022/07/18 11:05:46;;;;;;;5.73;4.77;;;31.80;65.10;;;;;;4911088;29;20534;-77
2022/07/18 11:08:24;;;;;;;5.20;4.90;;;32.10;65.40;;;;;;4914457;29;20614;-77
2022/07/18 11:11:12;;;;;;;5.27;4.87;;;32.20;65.60;;;;;;4912507;29;20636;-77
2022/07/18 11:13:48;;;;;;;5.60;5.20;;;32.00;64.20;;;;;;4909520;29;20263;-77
2022/07/18 11:16:16;;;;;;;5.37;5.07;;;32.10;67.00;;;;;;4912726;29;20238;-78
2022/07/18 11:19:17;;;;;;;5.43;5.03;;;32.00;66.10;;;;;;4915641;29;20192;-77
2022/07/18 11:21:46;;;;;;;5.73;5.27;;;32.10;66.40;;;;;;4834817;29;20275;-76
2022/07/18 11:24:14;;;;;;;8.40;5.03;;;31.70;64.60;;;;;;4839420;29;20751;-76
2022/07/18 11:26:46;;;;;;;5.20;4.90;;;31.80;66.30;;;;;;4860971;29;20218;-76
2022/07/18 11:29:16;;;;;;;5.50;5.10;;;31.60;66.00;;;;;;4916997;29;20196;-76
2022/07/18 11:31:47;;;;;;;5.90;5.30;;;31.80;66.20;;;;;;4917988;29;20204;-76
2022/07/18 11:34:15;;;;;;;5.90;5.40;;;31.60;66.10;;;;;;4912677;29;20220;-76
2022/07/18 11:36:45;;;;;;;5.40;5.00;;;31.50;67.30;;;;;;4916480;29;20630;-76
2022/07/18 11:39:12;;;;;;;4.50;4.20;;;31.60;66.60;;;;;;4910163;29;20207;-76
2022/07/18 11:41:40;;;;;;;4.30;4.00;;;31.60;66.20;;;;;;4917738;29;20200;-76
2022/07/18 11:44:16;;;;;;;4.33;3.93;;;31.80;68.20;;;;;;4917389;29;20604;-76
2022/07/18 11:46:45;;;;;;;4.50;4.20;;;31.60;65.10;;;;;;4917748;29;20208;-76
2022/07/18 11:49:12;;;;;;;4.57;4.17;;;31.50;66.80;;;;;;4912750;29;20208;-76
2022/07/18 11:51:41;;;;;;;4.30;4.00;;;31.50;66.30;;;;;;4912033;29;20546;-76
2022/07/18 11:54:09;;;;;;;4.30;3.90;;;31.60;67.20;;;;;;4917286;29;20267;-76
2022/07/18 11:56:47;;;;;;;4.70;4.40;;;31.70;67.70;;;;;;4917734;29;20230;-76
2022/07/18 11:59:14;;;;;;;4.93;4.63;;;31.80;67.10;;;;;;4917448;29;20671;-76
2022/07/18 12:01:41;;;;;;;5.00;4.70;;;31.90;67.60;;;;;;4917562;29;20637;-76
2022/07/18 12:04:17;;;;;;;5.30;4.90;;;31.60;66.20;;;;;;4915729;29;20196;-76
2022/07/18 12:06:45;;;;;;;4.90;4.50;;;31.60;68.30;;;;;;4917471;29;20208;-76
2022/07/18 12:09:11;;;;;;;4.70;4.40;;;31.30;65.60;;;;;;4917256;29;20681;-76
2022/07/18 12:11:39;;;;;;;4.97;4.67;;;31.20;66.80;;;;;;4916221;29;20204;-76
2022/07/18 12:14:15;;;;;;;5.63;5.23;;;31.20;66.40;;;;;;4917045;29;20208;-75
2022/07/18 12:16:43;;;;;;;6.03;5.50;;;31.20;67.40;;;;;;4917399;29;20195;-76
2022/07/18 12:19:13;;;;;;;2.27;2.07;;;30.90;66.00;;;;;;4915238;29;20200;-75
2022/07/18 12:21:46;;;;;;;3.23;2.40;;;31.10;67.30;;;;;;4916170;29;20259;-76
2022/07/18 12:24:35;;;;;;;4.10;3.30;;;31.20;67.60;;;;;;4898445;29;20197;-76
2022/07/18 12:27:12;;;;;;;4.50;4.20;;;31.10;65.70;;;;;;4892844;29;20204;-77
2022/07/18 12:29:58;;;;;;;6.00;5.50;;;31.00;67.10;;;;;;4913858;29;20239;-78
2022/07/18 12:32:26;;;;;;;6.73;5.40;;;31.10;67.00;;;;;;4913567;29;20208;-78
2022/07/18 12:34:58;;;;;;;6.87;5.20;;;31.30;65.80;;;;;;4914569;29;20215;-78
2022/07/18 12:37:26;;;;;;;5.57;4.77;;;31.30;67.20;;;;;;4916786;29;20203;-78
2022/07/18 12:39:58;;;;;;;4.83;4.40;;;31.40;67.20;;;;;;4915289;29;20668;-78
2022/07/18 12:42:30;;;;;;;5.00;4.17;;;31.50;66.00;;;;;;4916781;29;20204;-77
2022/07/18 12:44:57;;;;;;;4.67;4.30;;;31.50;66.10;;;;;;4916627;29;20208;-78
2022/07/18 12:47:24;;;;;;;4.90;4.50;;;31.50;66.80;;;;;;4915639;29;20263;-78
2022/07/18 12:49:50;;;;;;;4.47;4.07;;;31.40;67.40;;;;;;4901956;29;20261;-78
2022/07/18 12:52:19;;;;;;;4.93;4.53;;;31.40;67.00;;;;;;4918795;29;20207;-79
2022/07/18 12:54:50;;;;;;;4.80;4.40;;;31.50;67.00;;;;;;4917570;29;20704;-77